createdAt,value
2019-05-14T00:03:16.546Z,12.23
2019-05-14T00:08:22.131Z,12.18
2019-05-14T00:13:25.968Z,12.13
2019-05-14T00:18:31.450Z,12.10
2019-05-14T00:23:35.415Z,12.09
2019-05-14T00:28:42.048Z,12.08
2019-05-14T00:33:45.415Z,12.05
2019-05-14T00:38:51.322Z,12.01
2019-05-14T00:43:55.258Z,12.00
2019-05-14T00:48:59.290Z,11.96
2019-05-14T00:54:03.361Z,11.86
2019-05-14T00:59:07.493Z,11.80
2019-05-14T01:04:11.746Z,11.76
2019-05-14T01:09:16.016Z,11.64
2019-05-14T01:14:21.136Z,11.59
2019-05-14T01:19:25.121Z,11.47
2019-05-14T01:24:28.972Z,11.40
2019-05-14T01:29:32.924Z,11.35
2019-05-14T01:34:36.904Z,11.31
2019-05-14T01:39:41.732Z,11.27
2019-05-14T01:44:46.026Z,11.21
2019-05-14T01:49:51.577Z,11.10
2019-05-14T01:54:56.788Z,10.91
2019-05-14T02:00:02.403Z,10.84
2019-05-14T02:05:08.684Z,10.75
2019-05-14T02:10:14.216Z,10.59
2019-05-14T02:15:21.421Z,10.60
2019-05-14T02:20:26.266Z,10.57
2019-05-14T02:25:31.998Z,10.53
2019-05-14T02:30:48.195Z,10.44
2019-05-14T02:35:44.210Z,10.38
2019-05-14T02:40:49.673Z,10.34
2019-05-14T02:46:09.047Z,10.28
2019-05-14T02:51:01.704Z,10.19
2019-05-14T02:56:10.093Z,10.09
2019-05-14T03:01:13.939Z,10.05
2019-05-14T03:06:20.003Z,10.01
2019-05-14T03:11:25.319Z,9.97
2019-05-14T03:16:35.680Z,9.95
2019-05-14T03:21:39.506Z,9.92
2019-05-14T03:26:44.266Z,9.96
2019-05-14T03:31:52.628Z,9.96
2019-05-14T03:37:02.505Z,9.86
2019-05-14T03:42:04.254Z,9.82
2019-05-14T03:47:10.716Z,9.74
2019-05-14T03:52:15.828Z,9.71
2019-05-14T03:57:20.822Z,9.64
2019-05-14T04:02:25.852Z,9.60
2019-05-14T04:07:31.760Z,9.60
2019-05-14T04:12:40.436Z,9.56
2019-05-14T04:17:44.461Z,9.50
2019-05-14T04:22:50.594Z,9.54
2019-05-14T04:27:59.559Z,9.56
2019-05-14T04:33:04.918Z,9.51
2019-05-14T04:38:10.009Z,9.51
2019-05-14T04:43:19.053Z,9.52
2019-05-14T04:48:32.561Z,9.49
2019-05-14T04:53:30.905Z,9.53
2019-05-14T04:58:40.461Z,9.51
2019-05-14T05:03:43.356Z,9.58
2019-05-14T05:08:50.151Z,9.50
2019-05-14T05:13:55.864Z,9.48
2019-05-14T05:19:00.913Z,9.46
2019-05-14T05:24:05.983Z,9.57
2019-05-14T05:29:11.414Z,9.64
2019-05-14T05:34:16.432Z,9.74
2019-05-14T05:39:22.745Z,9.85
2019-05-14T05:44:28.739Z,9.95
2019-05-14T05:49:35.086Z,10.08
2019-05-14T05:54:41.256Z,10.18
2019-05-14T05:59:51.742Z,10.37
2019-05-14T06:04:58.713Z,10.43
2019-05-14T06:10:03.816Z,10.47
2019-05-14T06:15:08.902Z,10.40
2019-05-14T06:20:13.912Z,10.39
2019-05-14T06:25:20.872Z,10.40
2019-05-14T06:30:34.433Z,10.38
2019-05-14T06:35:39.927Z,10.49
2019-05-14T06:40:45.440Z,10.48
2019-05-14T06:45:50.492Z,10.46
2019-05-14T06:50:58.038Z,10.50
2019-05-14T06:56:03.316Z,10.50
2019-05-14T07:01:09.639Z,10.59
2019-05-14T07:06:14.886Z,10.64
2019-05-14T07:11:20.015Z,10.66
2019-05-14T07:16:25.076Z,10.67
2019-05-14T07:21:30.219Z,10.80
2019-05-14T07:26:35.307Z,10.95
2019-05-14T07:31:40.536Z,10.96
2019-05-14T07:36:45.611Z,11.12
2019-05-14T07:41:50.674Z,11.31
2019-05-14T07:46:55.776Z,11.41
2019-05-14T07:52:00.800Z,11.45
2019-05-14T07:57:08.447Z,11.26
2019-05-14T08:02:13.001Z,11.17
2019-05-14T08:07:18.187Z,11.35
2019-05-14T08:12:23.193Z,11.60
2019-05-14T08:17:28.286Z,11.70
2019-05-14T08:22:34.394Z,11.57
2019-05-14T08:27:39.408Z,11.75
2019-05-14T08:32:44.528Z,11.74
2019-05-14T08:38:04.401Z,11.69
2019-05-14T08:42:58.217Z,11.70
2019-05-14T08:48:03.110Z,11.69
2019-05-14T08:53:09.067Z,11.74
2019-05-14T08:58:14.539Z,11.95
2019-05-14T09:03:20.623Z,12.09
2019-05-14T09:08:28.251Z,12.10
2019-05-14T09:13:32.379Z,12.23
2019-05-14T09:18:38.421Z,12.18
2019-05-14T09:23:43.795Z,12.36
2019-05-14T09:28:48.871Z,12.36
2019-05-14T09:33:53.984Z,12.40
2019-05-14T09:38:59.023Z,12.37
2019-05-14T09:44:04.085Z,12.44
2019-05-14T09:49:09.114Z,12.33
2019-05-14T09:54:14.293Z,12.42
2019-05-14T09:59:19.381Z,12.51
2019-05-14T10:04:24.586Z,12.74
2019-05-14T10:09:29.945Z,13.08
2019-05-14T10:14:34.924Z,13.18
2019-05-14T10:19:40.101Z,13.19
2019-05-14T10:24:45.516Z,13.21
2019-05-14T10:29:50.982Z,13.04
2019-05-14T10:34:56.032Z,12.71
2019-05-14T10:40:01.224Z,12.47
2019-05-14T10:45:11.991Z,12.62
2019-05-14T10:50:14.117Z,13.28
2019-05-14T10:55:19.328Z,13.67
2019-05-14T11:00:24.509Z,13.49
2019-05-14T11:05:29.548Z,13.36
2019-05-14T11:10:34.707Z,13.26
2019-05-14T11:15:39.737Z,13.13
2019-05-14T11:20:44.871Z,13.06
2019-05-14T11:25:49.956Z,13.50
2019-05-14T11:30:56.097Z,14.12
2019-05-14T11:36:01.520Z,15.01
2019-05-14T11:41:09.501Z,15.40
2019-05-14T11:46:13.851Z,15.09
2019-05-14T11:51:23.773Z,15.04
2019-05-14T11:56:26.222Z,14.92
2019-05-14T12:01:31.209Z,14.56
2019-05-14T12:06:38.802Z,14.08
2019-05-14T12:11:43.261Z,13.81
2019-05-14T12:16:49.437Z,13.87
2019-05-14T12:22:06.301Z,14.23
2019-05-14T12:27:01.678Z,15.07
2019-05-14T12:32:11.919Z,16.15
2019-05-14T12:37:13.904Z,16.93
2019-05-14T12:42:19.492Z,17.29
2019-05-14T12:47:24.875Z,17.16
2019-05-14T12:52:30.121Z,16.88
2019-05-14T12:57:35.104Z,16.33
2019-05-14T13:02:40.147Z,15.63
2019-05-14T13:07:45.284Z,15.17
2019-05-14T13:12:50.704Z,15.06
2019-05-14T13:17:56.060Z,16.02
2019-05-14T13:23:01.100Z,16.15
2019-05-14T13:28:08.979Z,16.32
2019-05-14T13:33:13.418Z,16.42
2019-05-14T13:38:18.935Z,15.66
2019-05-14T13:43:24.350Z,14.92
2019-05-14T13:48:30.041Z,14.33
2019-05-14T13:53:35.188Z,14.39
2019-05-14T13:58:40.335Z,14.63
2019-05-14T14:04:02.639Z,15.37
2019-05-14T14:08:59.453Z,16.06
2019-05-14T14:14:04.698Z,16.81
2019-05-14T14:19:10.191Z,16.51
2019-05-14T14:24:15.688Z,15.72
2019-05-14T14:29:20.744Z,14.95
2019-05-14T14:34:25.903Z,14.45
2019-05-14T14:39:31.095Z,14.33
2019-05-14T14:44:39.304Z,14.14
2019-05-14T14:49:44.631Z,14.10
2019-05-14T14:54:49.968Z,14.19
2019-05-14T15:00:29.128Z,14.26
2019-05-14T15:05:34.885Z,14.43
2019-05-14T15:10:39.940Z,14.39
2019-05-14T15:15:45.009Z,14.20
2019-05-14T15:20:50.465Z,14.04
2019-05-14T15:25:55.645Z,14.03
2019-05-14T15:31:00.791Z,13.91
2019-05-14T15:36:08.836Z,13.87
2019-05-14T15:41:13.707Z,13.87
2019-05-14T15:46:19.102Z,13.83
2019-05-14T15:51:24.065Z,13.84
2019-05-14T15:56:29.948Z,13.76
2019-05-14T16:01:35.320Z,13.73
2019-05-14T16:06:40.649Z,13.83
2019-05-14T16:11:48.209Z,13.78
2019-05-14T16:16:52.872Z,13.71
2019-05-14T16:21:58.608Z,13.75
2019-05-14T16:27:03.888Z,13.72
2019-05-14T16:32:09.064Z,13.77
2019-05-14T16:37:14.171Z,13.87
2019-05-14T16:42:20.672Z,13.96
2019-05-14T16:47:28.593Z,14.01
2019-05-14T16:52:33.395Z,14.04
2019-05-14T16:57:43.564Z,13.98
2019-05-14T17:02:48.832Z,13.87
2019-05-14T17:07:59.100Z,13.79
2019-05-14T17:13:04.140Z,13.74
2019-05-14T17:18:09.301Z,13.71
2019-05-14T17:23:14.580Z,13.61
2019-05-14T17:28:19.631Z,13.64
2019-05-14T17:33:25.548Z,13.63
2019-05-14T17:38:30.922Z,13.51
2019-05-14T17:43:35.974Z,13.40
2019-05-14T17:48:41.357Z,13.36
2019-05-14T17:53:48.079Z,13.28
2019-05-14T17:58:53.433Z,13.28
2019-05-14T18:03:58.655Z,13.26
2019-05-14T18:09:09.152Z,13.17
2019-05-14T18:14:14.196Z,13.20
2019-05-14T18:19:19.281Z,13.13
2019-05-14T18:24:28.503Z,13.11
2019-05-14T18:29:33.741Z,13.02
2019-05-14T18:34:39.329Z,13.00
2019-05-14T18:39:58.795Z,12.97
2019-05-14T18:45:08.635Z,12.94
2019-05-14T18:50:13.236Z,12.91
2019-05-14T18:55:18.815Z,12.87
2019-05-14T19:00:24.213Z,12.79
2019-05-14T19:05:30.443Z,12.73
2019-05-14T19:10:35.674Z,12.68
2019-05-14T19:15:41.032Z,12.62
2019-05-14T19:20:48.420Z,12.54
2019-05-14T19:25:53.288Z,12.47
2019-05-14T19:30:59.645Z,12.36
2019-05-14T19:36:05.415Z,12.25
2019-05-14T19:41:10.717Z,12.21
2019-05-14T19:46:15.981Z,12.22
2019-05-14T19:51:21.091Z,12.19
2019-05-14T19:56:29.139Z,12.12
2019-05-14T20:01:33.139Z,12.08
2019-05-14T20:06:39.179Z,12.03
2019-05-14T20:11:44.355Z,11.99
2019-05-14T20:16:50.092Z,11.88
2019-05-14T20:21:55.211Z,11.83
2019-05-14T20:27:08.223Z,11.79
2019-05-14T20:32:08.663Z,11.79
2019-05-14T20:37:15.084Z,11.69
2019-05-14T20:42:20.212Z,11.63
2019-05-14T20:47:25.470Z,11.58
2019-05-14T20:52:30.559Z,11.56
2019-05-14T20:57:38.040Z,11.50
2019-05-14T21:02:45.263Z,11.48
2019-05-14T21:07:50.685Z,11.36
2019-05-14T21:12:58.064Z,11.31
2019-05-14T21:18:14.484Z,11.28
2019-05-14T21:23:19.665Z,11.23
2019-05-14T21:28:24.723Z,11.20
2019-05-14T21:33:30.348Z,11.14
2019-05-14T21:38:37.955Z,11.06
2019-05-14T21:43:43.765Z,11.02
2019-05-14T21:48:49.183Z,10.97
2019-05-14T21:53:54.247Z,10.93
2019-05-14T21:59:09.724Z,10.86
2019-05-14T22:04:18.657Z,10.85
2019-05-14T22:09:24.047Z,10.80
2019-05-14T22:14:29.049Z,10.78
2019-05-14T22:19:34.058Z,10.69
2019-05-14T22:24:39.087Z,10.65
2019-05-14T22:29:44.139Z,10.57
2019-05-14T22:34:49.579Z,10.51
2019-05-14T22:39:54.624Z,10.43
2019-05-14T22:44:59.677Z,10.38
2019-05-14T22:50:04.820Z,10.28
2019-05-14T22:55:10.009Z,10.23
2019-05-14T23:00:15.345Z,10.20
2019-05-14T23:05:21.520Z,10.16
2019-05-14T23:10:26.546Z,10.12
2019-05-14T23:15:32.671Z,10.08
2019-05-14T23:20:38.989Z,10.01
2019-05-14T23:25:44.467Z,9.97
2019-05-14T23:30:49.491Z,9.92
2019-05-14T23:35:54.951Z,9.81
2019-05-14T23:41:00.653Z,9.73
2019-05-14T23:46:05.742Z,9.65
2019-05-14T23:51:10.802Z,9.56
2019-05-14T23:56:15.863Z,9.49
